createdAt,value
2023-05-19T00:02:15.415Z,10.10
2023-05-19T00:05:02.861Z,10.00
2023-05-19T00:07:58.368Z,10.00
2023-05-19T00:10:52.369Z,10.00
2023-05-19T00:13:46.371Z,9.90
2023-05-19T00:16:41.427Z,9.90
2023-05-19T00:19:32.245Z,9.80
2023-05-19T00:22:26.458Z,9.80
2023-05-19T00:25:13.666Z,9.80
2023-05-19T00:28:08.407Z,9.80
2023-05-19T00:30:56.186Z,9.70
2023-05-19T00:33:49.430Z,9.70
2023-05-19T00:36:36.679Z,9.70
2023-05-19T00:39:30.425Z,9.70
2023-05-19T00:42:24.475Z,9.60
2023-05-19T00:45:11.686Z,9.60
2023-05-19T00:48:05.516Z,9.60
2023-05-19T00:51:04.446Z,9.60
2023-05-19T00:53:58.507Z,9.50
2023-05-19T00:56:45.682Z,9.50
2023-05-19T00:59:39.456Z,9.40
2023-05-19T01:02:29.758Z,9.40
2023-05-19T01:05:24.478Z,9.40
2023-05-19T01:08:18.466Z,9.40
2023-05-19T01:11:13.486Z,9.40
2023-05-19T01:14:07.463Z,9.30
2023-05-19T01:17:34.353Z,9.30
2023-05-19T01:20:49.484Z,9.30
2023-05-19T01:23:51.322Z,9.30
2023-05-19T01:27:09.514Z,9.30
2023-05-19T01:30:25.486Z,9.30
2023-05-19T01:33:15.165Z,9.20
2023-05-19T01:36:10.469Z,9.20
2023-05-19T01:39:05.566Z,9.10
2023-05-19T01:41:53.984Z,9.20
2023-05-19T01:44:48.525Z,9.10
2023-05-19T01:47:39.813Z,9.10
2023-05-19T01:50:34.835Z,9.10
2023-05-19T01:53:22.163Z,9.10
2023-05-19T01:56:15.519Z,9.00
2023-05-19T01:59:23.584Z,9.00
2023-05-19T02:02:48.555Z,9.00
2023-05-19T02:06:05.553Z,9.00
2023-05-19T02:09:22.630Z,9.00
2023-05-19T02:12:11.843Z,9.00
2023-05-19T02:15:18.563Z,8.90
2023-05-19T02:18:09.436Z,8.90
2023-05-19T02:21:03.588Z,8.90
2023-05-19T02:23:57.586Z,8.80
2023-05-19T02:26:51.611Z,8.90
2023-05-19T02:29:45.596Z,8.80
2023-05-19T02:32:39.644Z,8.80
2023-05-19T02:35:27.919Z,8.80
2023-05-19T02:38:21.619Z,8.80
2023-05-19T02:41:15.600Z,8.80
2023-05-19T02:44:02.698Z,8.70
2023-05-19T02:46:56.615Z,8.70
2023-05-19T02:49:44.246Z,8.70
2023-05-19T02:52:37.651Z,8.70
2023-05-19T02:55:24.782Z,8.70
2023-05-19T02:58:18.675Z,8.70
2023-05-19T03:01:12.645Z,8.70
2023-05-19T03:04:06.780Z,8.70
2023-05-19T03:06:57.639Z,8.60
2023-05-19T03:09:51.719Z,8.60
2023-05-19T03:12:51.716Z,8.60
2023-05-19T03:15:52.672Z,8.60
2023-05-19T03:18:46.678Z,8.60
2023-05-19T03:21:40.669Z,8.50
2023-05-19T03:24:27.868Z,8.50
2023-05-19T03:27:21.673Z,8.50
2023-05-19T03:30:15.679Z,8.50
2023-05-19T03:33:02.970Z,8.50
2023-05-19T03:35:56.729Z,8.50
2023-05-19T03:38:50.733Z,8.50
2023-05-19T03:41:37.864Z,8.40
2023-05-19T03:44:31.691Z,8.40
2023-05-19T03:47:25.711Z,8.40
2023-05-19T03:50:13.907Z,8.40
2023-05-19T03:53:14.706Z,8.40
2023-05-19T03:56:01.939Z,8.40
2023-05-19T03:58:56.725Z,8.40
2023-05-19T04:01:50.933Z,8.40
2023-05-19T04:04:38.198Z,8.40
2023-05-19T04:07:32.755Z,8.40
2023-05-19T04:10:20.671Z,8.40
2023-05-19T04:13:14.717Z,8.50
2023-05-19T04:16:08.807Z,8.40
2023-05-19T04:19:03.820Z,8.50
2023-05-19T04:21:57.815Z,8.50
2023-05-19T04:24:52.776Z,8.50
2023-05-19T04:27:46.773Z,8.40
2023-05-19T04:30:40.826Z,8.50
2023-05-19T04:33:29.393Z,8.50
2023-05-19T04:36:26.789Z,8.50
2023-05-19T04:39:20.781Z,8.50
2023-05-19T04:42:09.021Z,8.50
2023-05-19T04:45:02.830Z,8.50
2023-05-19T04:47:56.825Z,8.60
2023-05-19T04:50:50.836Z,8.60
2023-05-19T04:53:40.199Z,8.60
2023-05-19T04:56:35.817Z,8.60
2023-05-19T04:59:29.910Z,8.70
2023-05-19T05:02:17.152Z,8.70
2023-05-19T05:05:11.807Z,8.70
2023-05-19T05:07:59.326Z,8.70
2023-05-19T05:10:52.919Z,8.80
2023-05-19T05:13:40.406Z,8.80
2023-05-19T05:16:33.951Z,8.80
2023-05-19T05:19:22.324Z,8.90
2023-05-19T05:22:16.870Z,8.90
2023-05-19T05:25:10.937Z,8.90
2023-05-19T05:28:05.874Z,9.00
2023-05-19T05:30:59.829Z,9.00
2023-05-19T05:33:47.108Z,9.00
2023-05-19T05:36:41.865Z,9.10
2023-05-19T05:39:29.088Z,9.10
2023-05-19T05:42:22.892Z,9.20
2023-05-19T05:45:10.153Z,9.20
2023-05-19T05:48:04.109Z,9.20
2023-05-19T05:50:52.870Z,9.30
2023-05-19T05:53:53.901Z,9.40
2023-05-19T05:56:47.884Z,9.40
2023-05-19T05:59:35.022Z,9.40
2023-05-19T06:02:28.958Z,9.50
2023-05-19T06:05:16.579Z,9.50
2023-05-19T06:08:10.935Z,9.60
2023-05-19T06:11:04.943Z,9.60
2023-05-19T06:13:52.167Z,9.70
2023-05-19T06:16:45.915Z,9.80
2023-05-19T06:19:33.474Z,9.80
2023-05-19T06:22:26.962Z,9.90
2023-05-19T06:25:20.944Z,10.00
2023-05-19T06:28:08.069Z,10.00
2023-05-19T06:31:01.988Z,10.10
2023-05-19T06:33:49.079Z,10.20
2023-05-19T06:36:42.948Z,10.30
2023-05-19T06:39:30.133Z,10.40
2023-05-19T06:42:24.004Z,10.40
2023-05-19T06:45:11.367Z,10.50
2023-05-19T06:48:04.993Z,10.60
2023-05-19T06:50:52.223Z,10.70
2023-05-19T06:53:45.973Z,10.80
2023-05-19T06:56:33.223Z,10.80
2023-05-19T06:59:29.026Z,11.00
2023-05-19T07:02:23.038Z,11.10
2023-05-19T07:05:10.479Z,11.20
2023-05-19T07:08:04.013Z,11.30
2023-05-19T07:10:58.016Z,11.40
2023-05-19T07:13:45.169Z,11.60
2023-05-19T07:16:39.119Z,11.80
2023-05-19T07:19:26.379Z,11.90
2023-05-19T07:22:20.063Z,12.10
2023-05-19T07:25:08.319Z,12.30
2023-05-19T07:28:02.021Z,12.50
2023-05-19T07:30:56.113Z,12.70
2023-05-19T07:33:43.382Z,12.80
2023-05-19T07:36:38.131Z,12.90
2023-05-19T07:39:27.817Z,13.00
2023-05-19T07:42:21.096Z,13.10
2023-05-19T07:45:08.871Z,13.20
2023-05-19T07:48:03.195Z,13.30
2023-05-19T07:50:51.693Z,13.40
2023-05-19T07:53:45.127Z,13.50
2023-05-19T07:56:32.322Z,13.60
2023-05-19T07:59:26.111Z,13.70
2023-05-19T08:02:13.278Z,13.70
2023-05-19T08:05:07.165Z,13.80
2023-05-19T08:08:01.078Z,13.90
2023-05-19T08:10:48.197Z,13.90
2023-05-19T08:13:42.098Z,13.90
2023-05-19T08:16:36.107Z,14.00
2023-05-19T08:19:23.433Z,14.00
2023-05-19T08:22:17.150Z,14.10
2023-05-19T08:25:05.434Z,14.30
2023-05-19T08:27:59.154Z,14.40
2023-05-19T08:30:53.142Z,14.50
2023-05-19T08:33:47.158Z,14.50
2023-05-19T08:36:41.185Z,14.70
2023-05-19T08:39:28.481Z,14.80
2023-05-19T08:42:22.202Z,14.90
2023-05-19T08:45:09.682Z,15.10
2023-05-19T08:48:04.218Z,15.20
2023-05-19T08:51:21.179Z,15.40
2023-05-19T08:54:22.192Z,15.50
2023-05-19T08:57:16.899Z,15.60
2023-05-19T09:00:16.168Z,15.80
2023-05-19T09:03:22.884Z,16.00
2023-05-19T09:06:13.812Z,16.20
2023-05-19T09:09:07.196Z,16.50
2023-05-19T09:11:54.390Z,16.80
2023-05-19T09:14:48.217Z,17.10
2023-05-19T09:17:36.837Z,17.20
2023-05-19T09:20:30.221Z,17.40
2023-05-19T09:23:25.206Z,17.40
2023-05-19T09:26:12.393Z,17.60
2023-05-19T09:29:06.229Z,17.80
2023-05-19T09:31:56.100Z,17.90
2023-05-19T09:34:50.254Z,18.00
2023-05-19T09:37:40.733Z,18.10
2023-05-19T09:40:38.290Z,18.10
2023-05-19T09:43:29.394Z,18.10
2023-05-19T09:46:23.353Z,18.10
2023-05-19T09:49:17.299Z,18.10
2023-05-19T09:52:12.632Z,18.30
2023-05-19T09:55:00.273Z,18.30
2023-05-19T09:57:54.626Z,18.30
2023-05-19T10:00:42.147Z,18.30
2023-05-19T10:03:38.419Z,18.30
2023-05-19T10:06:26.841Z,18.50
2023-05-19T10:09:21.272Z,18.70
2023-05-19T10:12:11.026Z,18.80
2023-05-19T10:15:06.323Z,18.70
2023-05-19T10:17:53.977Z,18.90
2023-05-19T10:20:49.339Z,19.10
2023-05-19T10:23:43.317Z,19.30
2023-05-19T10:26:32.259Z,19.40
2023-05-19T10:29:34.459Z,19.50
2023-05-19T10:32:26.756Z,19.60
2023-05-19T10:35:35.896Z,19.70
2023-05-19T10:38:26.352Z,19.80
2023-05-19T10:41:46.870Z,19.60
2023-05-19T10:45:06.952Z,19.70
2023-05-19T10:48:01.395Z,19.70
2023-05-19T10:50:56.358Z,19.80
2023-05-19T10:53:56.447Z,19.90
2023-05-19T10:56:54.340Z,20.00
2023-05-19T10:59:42.125Z,20.20
2023-05-19T11:02:49.459Z,20.40
2023-05-19T11:05:43.534Z,20.60
2023-05-19T11:08:35.035Z,20.70
2023-05-19T11:11:29.570Z,20.90
2023-05-19T11:14:20.239Z,21.00
2023-05-19T11:17:21.414Z,20.90
2023-05-19T11:20:12.711Z,20.70
2023-05-19T11:23:15.590Z,20.70
2023-05-19T11:26:02.918Z,20.70
2023-05-19T11:28:56.383Z,20.70
2023-05-19T11:31:44.082Z,20.70
2023-05-19T11:34:38.425Z,20.70
2023-05-19T11:37:32.529Z,20.80
2023-05-19T11:40:21.597Z,21.00
2023-05-19T11:43:15.711Z,20.90
2023-05-19T11:46:02.966Z,21.10
2023-05-19T11:48:57.469Z,21.20
2023-05-19T11:51:44.963Z,21.40
2023-05-19T11:54:40.647Z,21.80
2023-05-19T11:57:28.678Z,22.00
2023-05-19T12:00:22.500Z,22.30
2023-05-19T12:03:10.052Z,22.60
2023-05-19T12:06:04.542Z,22.70
2023-05-19T12:08:59.694Z,22.90
2023-05-19T12:11:47.825Z,23.20
2023-05-19T12:14:42.472Z,23.30
2023-05-19T12:17:32.858Z,23.20
2023-05-19T12:20:26.509Z,23.10
2023-05-19T12:23:14.426Z,23.30
2023-05-19T12:26:08.533Z,23.20
2023-05-19T12:28:55.677Z,23.10
2023-05-19T12:31:53.608Z,23.00
2023-05-19T12:34:48.576Z,23.10
2023-05-19T12:37:47.543Z,23.10
2023-05-19T12:40:42.539Z,23.20
2023-05-19T12:43:36.515Z,23.30
2023-05-19T12:46:30.643Z,23.30
2023-05-19T12:49:17.829Z,23.20
2023-05-19T12:52:13.229Z,23.10
2023-05-19T12:55:06.189Z,23.10
2023-05-19T12:58:05.545Z,22.90
2023-05-19T13:01:05.678Z,22.90
2023-05-19T13:04:00.103Z,23.00
2023-05-19T13:06:49.576Z,22.80
2023-05-19T13:09:43.594Z,22.70
2023-05-19T13:12:30.829Z,22.60
2023-05-19T13:15:24.600Z,22.70
2023-05-19T13:18:19.665Z,22.70
2023-05-19T13:21:13.613Z,22.80
2023-05-19T13:24:00.706Z,22.90
2023-05-19T13:26:55.260Z,23.00
2023-05-19T13:29:49.769Z,22.80
2023-05-19T13:32:36.903Z,22.50
2023-05-19T13:35:30.623Z,22.40
2023-05-19T13:38:17.939Z,22.50
2023-05-19T13:41:12.200Z,22.30
2023-05-19T13:44:07.651Z,22.40
2023-05-19T13:47:01.697Z,22.60
2023-05-19T13:49:48.955Z,22.90
2023-05-19T13:52:48.669Z,23.10
2023-05-19T13:55:49.664Z,23.20
2023-05-19T13:58:36.796Z,23.40
2023-05-19T14:01:30.701Z,23.60
2023-05-19T14:04:25.676Z,23.60
2023-05-19T14:07:13.045Z,23.70
2023-05-19T14:10:06.882Z,23.70
2023-05-19T14:15:50.866Z,23.20
2023-05-19T14:18:44.704Z,23.10
2023-05-19T14:21:32.612Z,23.20
2023-05-19T14:24:26.689Z,23.40
2023-05-19T14:27:20.742Z,23.50
2023-05-19T14:30:14.742Z,23.50
2023-05-19T14:33:01.953Z,23.50
2023-05-19T14:35:55.733Z,23.60
2023-05-19T14:38:43.064Z,23.60
2023-05-19T14:41:36.761Z,23.40
2023-05-19T14:44:30.701Z,23.20
2023-05-19T14:47:26.301Z,23.00
2023-05-19T14:50:20.722Z,22.80
2023-05-19T14:53:07.871Z,22.80
2023-05-19T14:56:01.743Z,23.00
2023-05-19T14:58:48.841Z,23.00
2023-05-19T15:01:42.860Z,22.90
2023-05-19T15:04:30.208Z,22.70
2023-05-19T15:07:23.824Z,22.60
2023-05-19T15:10:11.269Z,22.60
2023-05-19T15:13:06.825Z,22.80
2023-05-19T15:16:08.297Z,23.00
2023-05-19T15:19:08.858Z,23.20
2023-05-19T15:21:56.038Z,23.40
2023-05-19T15:24:49.817Z,23.50
2023-05-19T15:27:44.116Z,23.50
2023-05-19T15:30:38.077Z,23.60
2023-05-19T15:33:25.510Z,23.60
2023-05-19T15:36:23.020Z,23.30
2023-05-19T15:39:10.148Z,23.30
2023-05-19T15:42:03.821Z,23.40
2023-05-19T15:44:50.964Z,23.60
2023-05-19T15:47:44.880Z,23.70
2023-05-19T15:50:38.882Z,24.00
2023-05-19T15:53:26.084Z,23.90
2023-05-19T15:56:22.905Z,23.90
2023-05-19T15:59:10.123Z,23.60
2023-05-19T16:02:03.922Z,23.30
2023-05-19T16:04:51.140Z,23.20
2023-05-19T16:07:44.897Z,23.20
2023-05-19T16:10:38.917Z,23.10
2023-05-19T16:13:26.289Z,23.00
2023-05-19T16:16:19.898Z,23.10
2023-05-19T16:19:13.936Z,23.00
2023-05-19T16:22:07.998Z,22.90
2023-05-19T16:24:55.075Z,22.80
2023-05-19T16:27:48.910Z,22.60
2023-05-19T16:30:42.898Z,22.60
2023-05-19T16:33:30.169Z,22.60
2023-05-19T16:36:23.954Z,22.30
2023-05-19T16:39:11.175Z,22.10
2023-05-19T16:42:04.944Z,22.00
2023-05-19T16:44:52.147Z,21.80
2023-05-19T16:47:50.151Z,21.60
2023-05-19T16:50:37.539Z,21.50
2023-05-19T16:53:31.930Z,21.40
2023-05-19T16:56:19.284Z,21.20
2023-05-19T16:59:13.940Z,21.00
2023-05-19T17:02:01.254Z,20.80
2023-05-19T17:04:55.050Z,20.60
2023-05-19T17:07:49.013Z,20.40
2023-05-19T17:10:38.541Z,20.30
2023-05-19T17:13:31.992Z,20.10
2023-05-19T17:16:19.278Z,19.90
2023-05-19T17:19:13.093Z,19.70
2023-05-19T17:22:00.288Z,19.50
2023-05-19T17:24:53.982Z,19.40
2023-05-19T17:27:41.140Z,19.30
2023-05-19T17:30:35.258Z,19.30
2023-05-19T17:33:22.606Z,19.30
2023-05-19T17:36:16.027Z,19.20
2023-05-19T17:39:03.694Z,19.20
2023-05-19T17:41:57.152Z,19.10
2023-05-19T17:44:51.034Z,19.00
2023-05-19T17:47:38.824Z,18.80
2023-05-19T17:50:33.143Z,18.70
2023-05-19T17:53:21.433Z,18.50
2023-05-19T17:56:18.029Z,18.40
2023-05-19T17:59:05.515Z,18.40
2023-05-19T18:01:59.153Z,18.30
2023-05-19T18:04:46.764Z,18.20
2023-05-19T18:07:46.138Z,18.10
2023-05-19T18:10:37.462Z,18.10
2023-05-19T18:13:33.081Z,18.00
2023-05-19T18:16:20.235Z,17.90
2023-05-19T18:19:14.115Z,17.80
2023-05-19T18:22:08.119Z,17.80
2023-05-19T18:25:03.111Z,17.70
2023-05-19T18:31:20.107Z,17.60
2023-05-19T18:34:15.255Z,17.50
2023-05-19T18:37:02.606Z,17.40
2023-05-19T18:39:57.257Z,17.40
2023-05-19T18:42:51.314Z,17.30
2023-05-19T18:45:38.640Z,17.20
2023-05-19T18:48:33.175Z,17.10
2023-05-19T18:51:48.154Z,17.10
2023-05-19T18:54:44.697Z,17.00
2023-05-19T18:57:31.965Z,16.90
2023-05-19T19:00:28.578Z,16.90
2023-05-19T19:03:18.879Z,16.80
2023-05-19T19:06:13.383Z,16.80
2023-05-19T19:09:00.635Z,16.70
2023-05-19T19:11:56.972Z,16.70
2023-05-19T19:14:44.210Z,16.60
2023-05-19T19:17:38.372Z,16.50
2023-05-19T19:20:25.899Z,16.50
2023-05-19T19:23:20.211Z,16.40
2023-05-19T19:26:09.215Z,16.40
2023-05-19T19:29:03.201Z,16.40
2023-05-19T19:31:52.806Z,16.30
2023-05-19T19:34:47.269Z,16.30
2023-05-19T19:37:34.763Z,16.30
2023-05-19T19:40:32.398Z,16.20
2023-05-19T19:43:29.289Z,16.10
2023-05-19T19:46:22.987Z,16.10
2023-05-19T19:49:16.410Z,16.00
2023-05-19T19:52:06.710Z,15.90
2023-05-19T19:55:00.270Z,16.00
2023-05-19T19:57:58.169Z,15.90
2023-05-19T20:00:52.433Z,15.90
2023-05-19T20:03:39.631Z,15.80
2023-05-19T20:06:33.420Z,15.70
2023-05-19T20:09:23.733Z,15.70
2023-05-19T20:12:17.281Z,15.60
2023-05-19T20:15:05.668Z,15.60
2023-05-19T20:17:59.310Z,15.60
2023-05-19T20:20:46.498Z,15.50
2023-05-19T20:23:40.316Z,15.40
2023-05-19T20:26:35.300Z,15.40
2023-05-19T20:29:23.834Z,15.30
2023-05-19T20:32:18.304Z,15.30
2023-05-19T20:35:05.907Z,15.30
2023-05-19T20:37:59.272Z,15.20
2023-05-19T20:40:47.727Z,15.20
2023-05-19T20:43:41.321Z,15.20
2023-05-19T20:46:28.535Z,15.10
2023-05-19T20:49:22.362Z,15.10
2023-05-19T20:52:16.314Z,15.00
2023-05-19T20:55:03.882Z,15.00
2023-05-19T20:57:57.451Z,15.00
2023-05-19T21:00:44.563Z,14.90
2023-05-19T21:03:38.316Z,14.80
2023-05-19T21:06:25.410Z,14.80
2023-05-19T21:09:19.337Z,14.80
2023-05-19T21:12:06.954Z,14.70
2023-05-19T21:15:00.314Z,14.70
2023-05-19T21:17:47.570Z,14.60
2023-05-19T21:20:41.324Z,14.60
2023-05-19T21:23:28.448Z,14.60
2023-05-19T21:26:22.322Z,14.50
2023-05-19T21:29:16.381Z,14.50
2023-05-19T21:32:10.362Z,14.40
2023-05-19T21:35:04.356Z,14.40
2023-05-19T21:37:51.444Z,14.40
2023-05-19T21:40:45.391Z,14.40
2023-05-19T21:43:32.604Z,14.30
2023-05-19T21:46:26.403Z,14.30
2023-05-19T21:49:13.562Z,14.30
2023-05-19T21:52:07.494Z,14.30
2023-05-19T21:55:02.431Z,14.20
2023-05-19T21:57:56.407Z,14.20
2023-05-19T22:00:58.392Z,14.20
2023-05-19T22:03:45.829Z,14.10
2023-05-19T22:06:40.385Z,14.10
2023-05-19T22:09:27.514Z,14.10
2023-05-19T22:12:21.408Z,14.10
2023-05-19T22:15:15.431Z,14.00
2023-05-19T22:18:09.476Z,14.00
2023-05-19T22:20:56.693Z,14.00
2023-05-19T22:23:50.444Z,14.00
2023-05-19T22:26:37.881Z,13.90
2023-05-19T22:29:31.452Z,13.90
2023-05-19T22:32:26.515Z,13.90
2023-05-19T22:35:13.795Z,13.80
2023-05-19T22:38:08.907Z,13.80
2023-05-19T22:40:57.621Z,13.80
2023-05-19T22:43:51.494Z,13.70
2023-05-19T22:46:38.647Z,13.70
2023-05-19T22:49:33.479Z,13.70
2023-05-19T22:52:20.598Z,13.60
2023-05-19T22:55:14.499Z,13.60
2023-05-19T22:58:01.647Z,13.60
2023-05-19T23:00:56.639Z,13.60
2023-05-19T23:03:44.226Z,13.50
2023-05-19T23:06:38.513Z,13.50
2023-05-19T23:09:33.528Z,13.50
2023-05-19T23:12:20.640Z,13.40
2023-05-19T23:15:15.533Z,13.40
2023-05-19T23:18:07.235Z,13.40
2023-05-19T23:21:01.531Z,13.30
2023-05-19T23:23:49.711Z,13.30
2023-05-19T23:26:43.591Z,13.20
2023-05-19T23:29:37.495Z,13.20
2023-05-19T23:32:31.576Z,13.20
2023-05-19T23:35:26.584Z,13.10
2023-05-19T23:38:14.737Z,13.10
2023-05-19T23:41:08.565Z,13.10
2023-05-19T23:43:55.754Z,13.10
2023-05-19T23:46:49.623Z,13.00
2023-05-19T23:49:36.764Z,13.00
2023-05-19T23:52:30.623Z,12.90
2023-05-19T23:55:17.910Z,12.90
2023-05-19T23:58:12.594Z,12.80
